sensor_id;sensor_type;location;lat;lon;timestamp;temperature;humidity
21772;DHT22;11047;47.904;8.110;2023-02-28T00:01:11;-3.20;99.90
21772;DHT22;11047;47.904;8.110;2023-02-28T00:03:38;-2.70;99.90
21772;DHT22;11047;47.904;8.110;2023-02-28T00:06:06;-3.20;99.90
21772;DHT22;11047;47.904;8.110;2023-02-28T00:08:36;-3.30;99.90
21772;DHT22;11047;47.904;8.110;2023-02-28T00:11:04;-3.20;99.90
21772;DHT22;11047;47.904;8.110;2023-02-28T00:13:34;-3.30;99.90
21772;DHT22;11047;47.904;8.110;2023-02-28T00:16:03;-3.30;99.90
21772;DHT22;11047;47.904;8.110;2023-02-28T00:18:30;-3.30;99.90
21772;DHT22;11047;47.904;8.110;2023-02-28T00:20:57;-3.20;99.90
21772;DHT22;11047;47.904;8.110;2023-02-28T00:23:24;-3.30;99.90
21772;DHT22;11047;47.904;8.110;2023-02-28T00:25:52;-3.20;99.90
21772;DHT22;11047;47.904;8.110;2023-02-28T00:28:19;-3.30;99.90
21772;DHT22;11047;47.904;8.110;2023-02-28T00:30:47;-3.20;99.90
21772;DHT22;11047;47.904;8.110;2023-02-28T00:33:13;-3.20;99.90
21772;DHT22;11047;47.904;8.110;2023-02-28T00:35:40;-3.20;99.90
21772;DHT22;11047;47.904;8.110;2023-02-28T00:38:07;-3.20;99.90
21772;DHT22;11047;47.904;8.110;2023-02-28T00:40:34;-3.20;99.90
21772;DHT22;11047;47.904;8.110;2023-02-28T00:43:03;-3.20;99.90
21772;DHT22;11047;47.904;8.110;2023-02-28T00:45:30;-3.20;99.90
21772;DHT22;11047;47.904;8.110;2023-02-28T00:47:57;-3.30;99.90
21772;DHT22;11047;47.904;8.110;2023-02-28T00:50:24;-3.30;99.90
21772;DHT22;11047;47.904;8.110;2023-02-28T00:52:51;-3.30;99.90
21772;DHT22;11047;47.904;8.110;2023-02-28T00:55:18;-3.30;99.90
21772;DHT22;11047;47.904;8.110;2023-02-28T00:57:45;-3.30;99.90
21772;DHT22;11047;47.904;8.110;2023-02-28T01:00:14;-3.30;99.90
21772;DHT22;11047;47.904;8.110;2023-02-28T01:02:41;-3.30;99.90
21772;DHT22;11047;47.904;8.110;2023-02-28T01:05:08;-3.30;99.90
21772;DHT22;11047;47.904;8.110;2023-02-28T01:07:35;-3.30;99.90
21772;DHT22;11047;47.904;8.110;2023-02-28T01:10:02;-3.30;99.90
21772;DHT22;11047;47.904;8.110;2023-02-28T01:12:29;-3.30;99.90
21772;DHT22;11047;47.904;8.110;2023-02-28T01:14:56;-3.30;99.90
21772;DHT22;11047;47.904;8.110;2023-02-28T01:17:24;-3.30;99.90
21772;DHT22;11047;47.904;8.110;2023-02-28T01:19:53;-3.30;99.90
21772;DHT22;11047;47.904;8.110;2023-02-28T01:22:20;-3.30;99.90
21772;DHT22;11047;47.904;8.110;2023-02-28T01:24:47;-3.30;99.90
21772;DHT22;11047;47.904;8.110;2023-02-28T01:27:14;-3.30;99.90
21772;DHT22;11047;47.904;8.110;2023-02-28T01:29:41;-3.20;99.90
21772;DHT22;11047;47.904;8.110;2023-02-28T01:32:07;-3.20;99.90
21772;DHT22;11047;47.904;8.110;2023-02-28T01:34:36;-3.20;99.90
21772;DHT22;11047;47.904;8.110;2023-02-28T01:37:03;-3.20;99.90
21772;DHT22;11047;47.904;8.110;2023-02-28T01:39:30;-3.20;99.90
21772;DHT22;11047;47.904;8.110;2023-02-28T01:41:57;-3.20;99.90
21772;DHT22;11047;47.904;8.110;2023-02-28T01:45:03;-3.30;99.90
21772;DHT22;11047;47.904;8.110;2023-02-28T01:47:33;-3.30;99.90
21772;DHT22;11047;47.904;8.110;2023-02-28T01:50:05;-3.30;99.90
21772;DHT22;11047;47.904;8.110;2023-02-28T01:52:34;-3.30;99.90
21772;DHT22;11047;47.904;8.110;2023-02-28T01:55:02;-3.40;99.90
21772;DHT22;11047;47.904;8.110;2023-02-28T01:57:34;-3.30;99.90
21772;DHT22;11047;47.904;8.110;2023-02-28T02:00:06;-3.30;99.90
21772;DHT22;11047;47.904;8.110;2023-02-28T02:02:36;-3.30;99.90
21772;DHT22;11047;47.904;8.110;2023-02-28T02:05:06;-3.30;99.90
21772;DHT22;11047;47.904;8.110;2023-02-28T02:07:36;-3.30;99.90
21772;DHT22;11047;47.904;8.110;2023-02-28T02:10:10;-3.30;99.90
21772;DHT22;11047;47.904;8.110;2023-02-28T02:13:05;-3.30;99.90
21772;DHT22;11047;47.904;8.110;2023-02-28T02:15:38;-3.40;99.90
21772;DHT22;11047;47.904;8.110;2023-02-28T02:18:13;-3.40;99.90
21772;DHT22;11047;47.904;8.110;2023-02-28T02:21:18;-3.30;99.90
21772;DHT22;11047;47.904;8.110;2023-02-28T02:24:33;-3.40;99.90
21772;DHT22;11047;47.904;8.110;2023-02-28T02:27:20;-3.30;99.90
21772;DHT22;11047;47.904;8.110;2023-02-28T02:30:19;-3.30;99.90
21772;DHT22;11047;47.904;8.110;2023-02-28T02:36:12;-3.30;99.90
21772;DHT22;11047;47.904;8.110;2023-02-28T02:38:48;-3.30;99.90
21772;DHT22;11047;47.904;8.110;2023-02-28T02:41:23;-3.20;99.90
21772;DHT22;11047;47.904;8.110;2023-02-28T02:43:53;-2.80;99.90
21772;DHT22;11047;47.904;8.110;2023-02-28T02:46:27;-3.00;99.90
21772;DHT22;11047;47.904;8.110;2023-02-28T02:48:56;-3.30;99.90
21772;DHT22;11047;47.904;8.110;2023-02-28T02:51:27;-3.30;99.90
21772;DHT22;11047;47.904;8.110;2023-02-28T02:53:56;-3.40;99.90
21772;DHT22;11047;47.904;8.110;2023-02-28T02:56:28;-3.40;99.90
21772;DHT22;11047;47.904;8.110;2023-02-28T02:59:00;-3.20;99.90
21772;DHT22;11047;47.904;8.110;2023-02-28T03:01:29;-3.30;99.90
21772;DHT22;11047;47.904;8.110;2023-02-28T03:03:58;-3.30;99.90
21772;DHT22;11047;47.904;8.110;2023-02-28T03:06:27;-3.30;99.90
21772;DHT22;11047;47.904;8.110;2023-02-28T03:08:54;-3.30;99.90
21772;DHT22;11047;47.904;8.110;2023-02-28T03:11:21;-3.40;99.90
21772;DHT22;11047;47.904;8.110;2023-02-28T03:14:04;-3.40;99.90
21772;DHT22;11047;47.904;8.110;2023-02-28T03:16:49;-3.40;99.90
21772;DHT22;11047;47.904;8.110;2023-02-28T03:19:37;-3.40;99.90
21772;DHT22;11047;47.904;8.110;2023-02-28T03:22:16;-3.50;99.90
21772;DHT22;11047;47.904;8.110;2023-02-28T03:24:50;-3.40;99.90
21772;DHT22;11047;47.904;8.110;2023-02-28T03:27:24;-3.40;99.90
21772;DHT22;11047;47.904;8.110;2023-02-28T03:29:58;-3.40;99.90
21772;DHT22;11047;47.904;8.110;2023-02-28T03:32:29;-3.50;99.90
21772;DHT22;11047;47.904;8.110;2023-02-28T03:35:00;-3.40;99.90
21772;DHT22;11047;47.904;8.110;2023-02-28T03:37:32;-3.50;99.90
21772;DHT22;11047;47.904;8.110;2023-02-28T03:40:06;-3.50;99.90
21772;DHT22;11047;47.904;8.110;2023-02-28T03:42:39;-3.40;99.90
21772;DHT22;11047;47.904;8.110;2023-02-28T03:45:11;-3.40;99.90
21772;DHT22;11047;47.904;8.110;2023-02-28T03:47:44;-3.50;99.90
21772;DHT22;11047;47.904;8.110;2023-02-28T03:50:16;-3.50;99.90
21772;DHT22;11047;47.904;8.110;2023-02-28T03:52:49;-3.50;99.90
21772;DHT22;11047;47.904;8.110;2023-02-28T03:55:17;-3.50;99.90
21772;DHT22;11047;47.904;8.110;2023-02-28T03:57:52;-3.50;99.90
21772;DHT22;11047;47.904;8.110;2023-02-28T04:00:24;-3.50;99.90
21772;DHT22;11047;47.904;8.110;2023-02-28T04:02:53;-3.50;99.90
21772;DHT22;11047;47.904;8.110;2023-02-28T04:05:20;-3.50;99.90
21772;DHT22;11047;47.904;8.110;2023-02-28T04:07:49;-3.60;99.90
21772;DHT22;11047;47.904;8.110;2023-02-28T04:10:16;-3.60;99.90
21772;DHT22;11047;47.904;8.110;2023-02-28T04:12:44;-3.50;99.90
21772;DHT22;11047;47.904;8.110;2023-02-28T04:15:11;-3.50;99.90
21772;DHT22;11047;47.904;8.110;2023-02-28T04:17:38;-3.50;99.90
21772;DHT22;11047;47.904;8.110;2023-02-28T04:20:05;-3.50;99.90
21772;DHT22;11047;47.904;8.110;2023-02-28T04:22:35;-3.50;99.90
21772;DHT22;11047;47.904;8.110;2023-02-28T04:25:05;-3.50;99.90
21772;DHT22;11047;47.904;8.110;2023-02-28T04:27:32;-3.60;99.90
21772;DHT22;11047;47.904;8.110;2023-02-28T04:29:59;-3.50;99.90
21772;DHT22;11047;47.904;8.110;2023-02-28T04:32:26;-3.60;99.90
21772;DHT22;11047;47.904;8.110;2023-02-28T04:34:53;-3.60;99.90
21772;DHT22;11047;47.904;8.110;2023-02-28T04:37:19;-3.50;99.90
21772;DHT22;11047;47.904;8.110;2023-02-28T04:39:46;-3.50;99.90
21772;DHT22;11047;47.904;8.110;2023-02-28T04:42:15;-3.60;99.90
21772;DHT22;11047;47.904;8.110;2023-02-28T04:44:41;-3.50;99.90
21772;DHT22;11047;47.904;8.110;2023-02-28T04:47:08;-3.50;99.90
21772;DHT22;11047;47.904;8.110;2023-02-28T04:49:35;-3.50;99.90
21772;DHT22;11047;47.904;8.110;2023-02-28T04:52:02;-3.50;99.90
21772;DHT22;11047;47.904;8.110;2023-02-28T04:54:29;-3.50;99.90
21772;DHT22;11047;47.904;8.110;2023-02-28T04:56:56;-3.50;99.90
21772;DHT22;11047;47.904;8.110;2023-02-28T04:59:24;-3.60;99.90
21772;DHT22;11047;47.904;8.110;2023-02-28T05:01:51;-3.60;99.90
21772;DHT22;11047;47.904;8.110;2023-02-28T05:04:18;-3.60;99.90
21772;DHT22;11047;47.904;8.110;2023-02-28T05:06:45;-3.60;99.90
21772;DHT22;11047;47.904;8.110;2023-02-28T05:09:12;-3.70;99.90
21772;DHT22;11047;47.904;8.110;2023-02-28T05:11:39;-3.70;99.90
21772;DHT22;11047;47.904;8.110;2023-02-28T05:14:10;-3.70;99.90
21772;DHT22;11047;47.904;8.110;2023-02-28T05:16:38;-3.70;99.90
21772;DHT22;11047;47.904;8.110;2023-02-28T05:19:05;-3.70;99.90
21772;DHT22;11047;47.904;8.110;2023-02-28T05:21:33;-3.60;99.90
21772;DHT22;11047;47.904;8.110;2023-02-28T05:24:02;-3.60;99.90
21772;DHT22;11047;47.904;8.110;2023-02-28T05:26:30;-3.60;99.90
21772;DHT22;11047;47.904;8.110;2023-02-28T05:28:57;-3.70;99.90
21772;DHT22;11047;47.904;8.110;2023-02-28T05:31:24;-3.60;99.90
21772;DHT22;11047;47.904;8.110;2023-02-28T05:33:52;-3.70;99.90
21772;DHT22;11047;47.904;8.110;2023-02-28T05:36:20;-3.70;99.90
21772;DHT22;11047;47.904;8.110;2023-02-28T05:38:47;-3.70;99.90
21772;DHT22;11047;47.904;8.110;2023-02-28T05:41:15;-3.70;99.90
21772;DHT22;11047;47.904;8.110;2023-02-28T05:43:42;-3.60;99.90
21772;DHT22;11047;47.904;8.110;2023-02-28T05:46:11;-3.60;99.90
21772;DHT22;11047;47.904;8.110;2023-02-28T05:48:39;-3.60;99.90
21772;DHT22;11047;47.904;8.110;2023-02-28T05:51:08;-3.60;99.90
21772;DHT22;11047;47.904;8.110;2023-02-28T05:53:35;-3.60;99.90
21772;DHT22;11047;47.904;8.110;2023-02-28T05:56:03;-3.60;99.90
21772;DHT22;11047;47.904;8.110;2023-02-28T05:58:30;-3.60;99.90
21772;DHT22;11047;47.904;8.110;2023-02-28T06:00:57;-3.60;99.90
21772;DHT22;11047;47.904;8.110;2023-02-28T06:03:25;-3.60;99.90
21772;DHT22;11047;47.904;8.110;2023-02-28T06:05:52;-3.60;99.90
21772;DHT22;11047;47.904;8.110;2023-02-28T06:08:20;-3.50;99.90
21772;DHT22;11047;47.904;8.110;2023-02-28T06:10:47;-3.60;99.90
21772;DHT22;11047;47.904;8.110;2023-02-28T06:13:14;-3.60;99.90
21772;DHT22;11047;47.904;8.110;2023-02-28T06:15:41;-3.60;99.90
21772;DHT22;11047;47.904;8.110;2023-02-28T06:18:08;-3.60;99.90
21772;DHT22;11047;47.904;8.110;2023-02-28T06:20:35;-3.70;99.90
21772;DHT22;11047;47.904;8.110;2023-02-28T06:23:02;-3.60;99.90
21772;DHT22;11047;47.904;8.110;2023-02-28T06:25:30;-3.70;99.90
21772;DHT22;11047;47.904;8.110;2023-02-28T06:27:57;-3.70;99.90
21772;DHT22;11047;47.904;8.110;2023-02-28T06:30:24;-3.60;99.90
21772;DHT22;11047;47.904;8.110;2023-02-28T06:32:52;-3.70;99.90
21772;DHT22;11047;47.904;8.110;2023-02-28T06:35:20;-3.60;99.90
21772;DHT22;11047;47.904;8.110;2023-02-28T06:37:46;-3.60;99.90
21772;DHT22;11047;47.904;8.110;2023-02-28T06:40:14;-3.70;99.90
21772;DHT22;11047;47.904;8.110;2023-02-28T06:42:42;-2.90;99.90
21772;DHT22;11047;47.904;8.110;2023-02-28T06:45:10;-3.60;99.90
21772;DHT22;11047;47.904;8.110;2023-02-28T06:47:37;-3.50;99.90
21772;DHT22;11047;47.904;8.110;2023-02-28T06:50:06;-3.60;99.90
21772;DHT22;11047;47.904;8.110;2023-02-28T06:52:33;-3.60;99.90
21772;DHT22;11047;47.904;8.110;2023-02-28T06:55:02;-3.60;99.90
21772;DHT22;11047;47.904;8.110;2023-02-28T06:57:29;-2.50;99.90
21772;DHT22;11047;47.904;8.110;2023-02-28T06:59:59;-3.50;99.90
21772;DHT22;11047;47.904;8.110;2023-02-28T07:02:26;-3.50;99.90
21772;DHT22;11047;47.904;8.110;2023-02-28T07:04:53;-3.50;99.90
21772;DHT22;11047;47.904;8.110;2023-02-28T07:07:20;-3.40;99.90
21772;DHT22;11047;47.904;8.110;2023-02-28T07:09:47;-3.40;99.90
21772;DHT22;11047;47.904;8.110;2023-02-28T07:12:14;-3.40;99.90
21772;DHT22;11047;47.904;8.110;2023-02-28T07:14:41;-3.40;99.90
21772;DHT22;11047;47.904;8.110;2023-02-28T07:17:10;-3.30;99.90
21772;DHT22;11047;47.904;8.110;2023-02-28T07:19:38;-3.40;99.90
21772;DHT22;11047;47.904;8.110;2023-02-28T07:22:05;-3.30;99.90
21772;DHT22;11047;47.904;8.110;2023-02-28T07:24:32;-3.40;99.90
21772;DHT22;11047;47.904;8.110;2023-02-28T07:26:59;-2.50;99.90
21772;DHT22;11047;47.904;8.110;2023-02-28T07:29:26;-3.30;99.90
21772;DHT22;11047;47.904;8.110;2023-02-28T07:31:53;-3.20;99.90
21772;DHT22;11047;47.904;8.110;2023-02-28T07:34:22;-3.40;99.90
21772;DHT22;11047;47.904;8.110;2023-02-28T07:36:49;-3.40;99.90
21772;DHT22;11047;47.904;8.110;2023-02-28T07:39:19;-3.40;99.90
21772;DHT22;11047;47.904;8.110;2023-02-28T07:41:46;-3.30;99.90
21772;DHT22;11047;47.904;8.110;2023-02-28T07:44:13;-3.20;99.90
21772;DHT22;11047;47.904;8.110;2023-02-28T07:46:40;-3.20;99.90
21772;DHT22;11047;47.904;8.110;2023-02-28T07:49:06;-3.20;99.90
21772;DHT22;11047;47.904;8.110;2023-02-28T07:51:35;-3.20;99.90
21772;DHT22;11047;47.904;8.110;2023-02-28T07:54:02;-3.10;99.90
21772;DHT22;11047;47.904;8.110;2023-02-28T07:56:29;-3.10;99.90
21772;DHT22;11047;47.904;8.110;2023-02-28T07:58:55;-3.10;99.90
21772;DHT22;11047;47.904;8.110;2023-02-28T08:01:22;-3.10;99.90
21772;DHT22;11047;47.904;8.110;2023-02-28T08:03:49;-3.10;99.90
21772;DHT22;11047;47.904;8.110;2023-02-28T08:06:17;-3.10;99.90
21772;DHT22;11047;47.904;8.110;2023-02-28T08:08:46;-3.10;99.90
21772;DHT22;11047;47.904;8.110;2023-02-28T08:11:13;-3.00;99.90
21772;DHT22;11047;47.904;8.110;2023-02-28T08:13:40;-3.00;99.90
21772;DHT22;11047;47.904;8.110;2023-02-28T08:16:10;-3.10;99.90
21772;DHT22;11047;47.904;8.110;2023-02-28T08:18:36;-3.10;99.90
21772;DHT22;11047;47.904;8.110;2023-02-28T08:21:06;-3.00;99.90
21772;DHT22;11047;47.904;8.110;2023-02-28T08:23:33;-2.90;99.90
21772;DHT22;11047;47.904;8.110;2023-02-28T08:26:02;-2.80;99.90
21772;DHT22;11047;47.904;8.110;2023-02-28T08:28:30;-2.80;99.90
21772;DHT22;11047;47.904;8.110;2023-02-28T08:30:57;-2.50;99.90
21772;DHT22;11047;47.904;8.110;2023-02-28T08:33:25;-2.70;99.90
21772;DHT22;11047;47.904;8.110;2023-02-28T08:35:55;-2.70;99.90
21772;DHT22;11047;47.904;8.110;2023-02-28T08:38:22;-2.70;99.90
21772;DHT22;11047;47.904;8.110;2023-02-28T08:40:49;-2.70;99.90
21772;DHT22;11047;47.904;8.110;2023-02-28T08:43:18;-2.60;99.90
21772;DHT22;11047;47.904;8.110;2023-02-28T08:45:45;-2.60;99.90
21772;DHT22;11047;47.904;8.110;2023-02-28T08:48:11;-2.60;99.90
21772;DHT22;11047;47.904;8.110;2023-02-28T08:50:39;-2.20;99.90
21772;DHT22;11047;47.904;8.110;2023-02-28T08:53:06;-2.60;99.90
21772;DHT22;11047;47.904;8.110;2023-02-28T08:55:32;-2.60;99.90
21772;DHT22;11047;47.904;8.110;2023-02-28T08:57:59;-2.60;99.90
21772;DHT22;11047;47.904;8.110;2023-02-28T09:00:28;-2.70;99.90
21772;DHT22;11047;47.904;8.110;2023-02-28T09:02:55;-2.80;99.90
21772;DHT22;11047;47.904;8.110;2023-02-28T09:05:22;-2.60;99.90
21772;DHT22;11047;47.904;8.110;2023-02-28T09:07:49;-2.60;99.90
21772;DHT22;11047;47.904;8.110;2023-02-28T09:10:16;-2.50;99.90
21772;DHT22;11047;47.904;8.110;2023-02-28T09:12:43;-2.40;99.90
21772;DHT22;11047;47.904;8.110;2023-02-28T09:15:12;-2.30;99.90
21772;DHT22;11047;47.904;8.110;2023-02-28T09:17:41;-2.40;99.90
21772;DHT22;11047;47.904;8.110;2023-02-28T09:20:09;-2.30;99.90
21772;DHT22;11047;47.904;8.110;2023-02-28T09:22:36;-2.30;99.90
21772;DHT22;11047;47.904;8.110;2023-02-28T09:25:03;-2.20;99.90
21772;DHT22;11047;47.904;8.110;2023-02-28T09:27:44;-2.20;99.90
21772;DHT22;11047;47.904;8.110;2023-02-28T09:30:25;-1.50;99.90
21772;DHT22;11047;47.904;8.110;2023-02-28T09:39:48;-2.10;99.90
21772;DHT22;11047;47.904;8.110;2023-02-28T09:42:21;-1.20;99.90
21772;DHT22;11047;47.904;8.110;2023-02-28T09:44:50;-1.90;99.90
21772;DHT22;11047;47.904;8.110;2023-02-28T09:47:25;-2.00;99.90
21772;DHT22;11047;47.904;8.110;2023-02-28T09:49:53;-2.00;99.90
21772;DHT22;11047;47.904;8.110;2023-02-28T09:52:28;-1.60;99.90
21772;DHT22;11047;47.904;8.110;2023-02-28T09:55:18;-2.00;99.90
21772;DHT22;11047;47.904;8.110;2023-02-28T09:57:46;-2.20;99.90
21772;DHT22;11047;47.904;8.110;2023-02-28T10:00:16;-2.10;99.90
21772;DHT22;11047;47.904;8.110;2023-02-28T10:05:39;-1.90;99.90
21772;DHT22;11047;47.904;8.110;2023-02-28T10:08:12;-1.90;99.90
21772;DHT22;11047;47.904;8.110;2023-02-28T10:10:43;-1.80;99.90
21772;DHT22;11047;47.904;8.110;2023-02-28T10:13:20;-1.80;99.90
21772;DHT22;11047;47.904;8.110;2023-02-28T10:15:52;-1.70;99.90
21772;DHT22;11047;47.904;8.110;2023-02-28T10:18:24;-1.60;99.90
21772;DHT22;11047;47.904;8.110;2023-02-28T10:20:51;-1.60;99.90
21772;DHT22;11047;47.904;8.110;2023-02-28T10:23:23;-1.50;99.90
21772;DHT22;11047;47.904;8.110;2023-02-28T10:25:59;-1.40;99.90
21772;DHT22;11047;47.904;8.110;2023-02-28T10:28:28;-1.40;99.90
21772;DHT22;11047;47.904;8.110;2023-02-28T10:30:56;-1.30;99.90
21772;DHT22;11047;47.904;8.110;2023-02-28T10:33:28;-1.60;99.90
21772;DHT22;11047;47.904;8.110;2023-02-28T10:35:55;-1.50;99.90
21772;DHT22;11047;47.904;8.110;2023-02-28T10:38:24;-1.50;99.90
21772;DHT22;11047;47.904;8.110;2023-02-28T10:40:51;-1.30;99.90
21772;DHT22;11047;47.904;8.110;2023-02-28T10:43:21;-1.40;99.90
21772;DHT22;11047;47.904;8.110;2023-02-28T10:45:56;-1.40;99.90
21772;DHT22;11047;47.904;8.110;2023-02-28T10:48:30;-1.30;99.90
21772;DHT22;11047;47.904;8.110;2023-02-28T10:50:58;-1.20;99.90
21772;DHT22;11047;47.904;8.110;2023-02-28T10:53:32;-1.20;99.90
21772;DHT22;11047;47.904;8.110;2023-02-28T10:56:00;-1.10;99.90
21772;DHT22;11047;47.904;8.110;2023-02-28T10:58:31;-0.80;99.90
21772;DHT22;11047;47.904;8.110;2023-02-28T11:00:59;-1.00;99.90
21772;DHT22;11047;47.904;8.110;2023-02-28T11:03:31;-0.30;99.90
21772;DHT22;11047;47.904;8.110;2023-02-28T11:05:59;-1.10;99.90
21772;DHT22;11047;47.904;8.110;2023-02-28T11:08:30;-1.20;99.90
21772;DHT22;11047;47.904;8.110;2023-02-28T11:10:59;-1.00;99.90
21772;DHT22;11047;47.904;8.110;2023-02-28T11:13:32;-1.10;99.90
21772;DHT22;11047;47.904;8.110;2023-02-28T11:16:03;-1.10;99.90
21772;DHT22;11047;47.904;8.110;2023-02-28T11:18:36;-1.20;99.90
21772;DHT22;11047;47.904;8.110;2023-02-28T11:21:03;-1.20;99.90
21772;DHT22;11047;47.904;8.110;2023-02-28T11:23:32;-1.30;99.90
21772;DHT22;11047;47.904;8.110;2023-02-28T11:26:03;-1.20;99.90
21772;DHT22;11047;47.904;8.110;2023-02-28T11:28:37;-1.10;99.90
21772;DHT22;11047;47.904;8.110;2023-02-28T11:31:14;-0.90;99.90
21772;DHT22;11047;47.904;8.110;2023-02-28T11:33:43;-1.10;99.90
21772;DHT22;11047;47.904;8.110;2023-02-28T11:36:13;-0.90;99.90
21772;DHT22;11047;47.904;8.110;2023-02-28T11:38:41;-0.90;99.90
21772;DHT22;11047;47.904;8.110;2023-02-28T11:41:27;-0.80;99.90
21772;DHT22;11047;47.904;8.110;2023-02-28T11:44:15;-0.80;99.90
21772;DHT22;11047;47.904;8.110;2023-02-28T11:46:48;-0.80;99.90
21772;DHT22;11047;47.904;8.110;2023-02-28T11:49:27;-0.60;99.90
21772;DHT22;11047;47.904;8.110;2023-02-28T11:52:00;-0.40;99.90
21772;DHT22;11047;47.904;8.110;2023-02-28T11:54:43;-0.40;99.90
21772;DHT22;11047;47.904;8.110;2023-02-28T11:57:29;-0.40;99.90
21772;DHT22;11047;47.904;8.110;2023-02-28T12:00:06;-0.50;99.90
21772;DHT22;11047;47.904;8.110;2023-02-28T12:02:47;-0.40;99.90
21772;DHT22;11047;47.904;8.110;2023-02-28T12:05:25;-0.30;99.90
21772;DHT22;11047;47.904;8.110;2023-02-28T12:08:06;-0.20;99.90
21772;DHT22;11047;47.904;8.110;2023-02-28T12:10:44;-0.40;99.90
21772;DHT22;11047;47.904;8.110;2023-02-28T12:13:21;-0.50;99.90
21772;DHT22;11047;47.904;8.110;2023-02-28T12:16:16;-0.30;99.90
21772;DHT22;11047;47.904;8.110;2023-02-28T12:19:06;-0.20;99.90
21772;DHT22;11047;47.904;8.110;2023-02-28T12:21:48;0.00;99.90
21772;DHT22;11047;47.904;8.110;2023-02-28T12:24:39;0.30;99.90
21772;DHT22;11047;47.904;8.110;2023-02-28T12:27:13;-0.20;99.90
21772;DHT22;11047;47.904;8.110;2023-02-28T12:29:46;0.10;99.90
21772;DHT22;11047;47.904;8.110;2023-02-28T12:32:21;0.00;99.90
21772;DHT22;11047;47.904;8.110;2023-02-28T12:34:49;0.00;99.90
21772;DHT22;11047;47.904;8.110;2023-02-28T12:37:22;0.10;99.90
21772;DHT22;11047;47.904;8.110;2023-02-28T12:39:54;0.70;99.90
21772;DHT22;11047;47.904;8.110;2023-02-28T12:42:25;0.00;99.90
21772;DHT22;11047;47.904;8.110;2023-02-28T12:44:56;0.10;99.90
21772;DHT22;11047;47.904;8.110;2023-02-28T12:47:26;0.00;99.90
21772;DHT22;11047;47.904;8.110;2023-02-28T12:49:56;0.10;99.90
21772;DHT22;11047;47.904;8.110;2023-02-28T12:52:31;0.50;99.90
21772;DHT22;11047;47.904;8.110;2023-02-28T12:55:05;1.20;99.90
21772;DHT22;11047;47.904;8.110;2023-02-28T12:57:38;0.20;99.90
21772;DHT22;11047;47.904;8.110;2023-02-28T13:00:13;0.10;99.90
21772;DHT22;11047;47.904;8.110;2023-02-28T13:06:08;0.00;99.90
21772;DHT22;11047;47.904;8.110;2023-02-28T13:09:00;0.00;99.90
21772;DHT22;11047;47.904;8.110;2023-02-28T13:11:29;0.10;99.90
21772;DHT22;11047;47.904;8.110;2023-02-28T13:13:58;0.20;99.90
21772;DHT22;11047;47.904;8.110;2023-02-28T13:16:26;0.10;99.90
21772;DHT22;11047;47.904;8.110;2023-02-28T13:19:08;0.10;99.90
21772;DHT22;11047;47.904;8.110;2023-02-28T13:21:43;-0.10;99.90
21772;DHT22;11047;47.904;8.110;2023-02-28T13:24:11;-0.20;99.90
21772;DHT22;11047;47.904;8.110;2023-02-28T13:29:40;-0.40;99.90
21772;DHT22;11047;47.904;8.110;2023-02-28T13:32:35;-0.50;99.90
21772;DHT22;11047;47.904;8.110;2023-02-28T13:35:42;-0.40;99.90
21772;DHT22;11047;47.904;8.110;2023-02-28T13:38:35;-0.30;99.90
21772;DHT22;11047;47.904;8.110;2023-02-28T13:44:17;-0.30;99.90
21772;DHT22;11047;47.904;8.110;2023-02-28T13:47:22;-0.40;99.90
21772;DHT22;11047;47.904;8.110;2023-02-28T13:49:51;-0.40;99.90
21772;DHT22;11047;47.904;8.110;2023-02-28T13:52:22;-0.10;99.90
21772;DHT22;11047;47.904;8.110;2023-02-28T13:57:49;-0.40;99.90
21772;DHT22;11047;47.904;8.110;2023-02-28T14:00:28;-0.30;99.90
21772;DHT22;11047;47.904;8.110;2023-02-28T14:06:16;-0.40;99.90
21772;DHT22;11047;47.904;8.110;2023-02-28T14:08:54;-0.50;99.90
21772;DHT22;11047;47.904;8.110;2023-02-28T14:11:32;-0.60;99.90
21772;DHT22;11047;47.904;8.110;2023-02-28T14:14:00;-0.60;99.90
21772;DHT22;11047;47.904;8.110;2023-02-28T14:16:36;-0.60;99.90
21772;DHT22;11047;47.904;8.110;2023-02-28T14:19:11;-0.60;99.90
21772;DHT22;11047;47.904;8.110;2023-02-28T14:21:43;-0.50;99.90
21772;DHT22;11047;47.904;8.110;2023-02-28T14:24:46;-0.50;99.90
21772;DHT22;11047;47.904;8.110;2023-02-28T14:27:32;-0.50;99.90
21772;DHT22;11047;47.904;8.110;2023-02-28T14:30:37;-0.40;99.90
21772;DHT22;11047;47.904;8.110;2023-02-28T14:33:22;-0.30;99.90
21772;DHT22;11047;47.904;8.110;2023-02-28T14:35:58;-0.10;99.90
21772;DHT22;11047;47.904;8.110;2023-02-28T14:38:28;0.00;99.90
21772;DHT22;11047;47.904;8.110;2023-02-28T14:41:02;0.00;99.90
21772;DHT22;11047;47.904;8.110;2023-02-28T14:43:31;0.00;99.90
21772;DHT22;11047;47.904;8.110;2023-02-28T14:46:00;0.10;99.90
21772;DHT22;11047;47.904;8.110;2023-02-28T14:48:30;-0.10;99.90
21772;DHT22;11047;47.904;8.110;2023-02-28T14:50:58;0.00;99.90
21772;DHT22;11047;47.904;8.110;2023-02-28T14:53:28;0.60;99.90
21772;DHT22;11047;47.904;8.110;2023-02-28T14:55:55;-0.60;99.90
21772;DHT22;11047;47.904;8.110;2023-02-28T14:58:27;-0.10;99.90
21772;DHT22;11047;47.904;8.110;2023-02-28T15:00:56;-0.20;99.90
21772;DHT22;11047;47.904;8.110;2023-02-28T15:03:29;-0.10;99.90
21772;DHT22;11047;47.904;8.110;2023-02-28T15:06:16;0.00;99.90
21772;DHT22;11047;47.904;8.110;2023-02-28T15:08:43;-0.20;99.90
21772;DHT22;11047;47.904;8.110;2023-02-28T15:11:14;-0.20;99.90
21772;DHT22;11047;47.904;8.110;2023-02-28T15:13:44;-0.10;99.90
21772;DHT22;11047;47.904;8.110;2023-02-28T15:16:16;0.00;99.90
21772;DHT22;11047;47.904;8.110;2023-02-28T15:18:46;0.10;99.90
21772;DHT22;11047;47.904;8.110;2023-02-28T15:21:16;0.00;99.90
21772;DHT22;11047;47.904;8.110;2023-02-28T15:23:46;0.00;99.90
21772;DHT22;11047;47.904;8.110;2023-02-28T15:26:17;0.00;99.90
21772;DHT22;11047;47.904;8.110;2023-02-28T15:28:57;0.10;99.90
21772;DHT22;11047;47.904;8.110;2023-02-28T15:31:27;0.20;99.90
21772;DHT22;11047;47.904;8.110;2023-02-28T15:33:55;1.00;99.90
21772;DHT22;11047;47.904;8.110;2023-02-28T15:36:25;0.20;99.90
21772;DHT22;11047;47.904;8.110;2023-02-28T15:38:54;0.00;99.90
21772;DHT22;11047;47.904;8.110;2023-02-28T15:41:26;0.00;99.90
21772;DHT22;11047;47.904;8.110;2023-02-28T15:44:17;0.20;99.90
21772;DHT22;11047;47.904;8.110;2023-02-28T15:46:54;-0.10;99.90
21772;DHT22;11047;47.904;8.110;2023-02-28T15:49:22;0.10;99.90
21772;DHT22;11047;47.904;8.110;2023-02-28T15:51:50;-0.20;99.90
21772;DHT22;11047;47.904;8.110;2023-02-28T15:54:20;0.40;99.90
21772;DHT22;11047;47.904;8.110;2023-02-28T15:56:51;-0.20;99.90
21772;DHT22;11047;47.904;8.110;2023-02-28T15:59:23;-0.30;99.90
21772;DHT22;11047;47.904;8.110;2023-02-28T16:02:12;-0.40;99.90
21772;DHT22;11047;47.904;8.110;2023-02-28T16:04:58;-0.50;99.90
21772;DHT22;11047;47.904;8.110;2023-02-28T16:07:26;-0.60;99.90
21772;DHT22;11047;47.904;8.110;2023-02-28T16:09:53;-0.50;99.90
21772;DHT22;11047;47.904;8.110;2023-02-28T16:12:21;-0.60;99.90
21772;DHT22;11047;47.904;8.110;2023-02-28T16:14:52;-0.60;99.90
21772;DHT22;11047;47.904;8.110;2023-02-28T16:17:22;-0.50;99.90
21772;DHT22;11047;47.904;8.110;2023-02-28T16:19:50;-0.50;99.90
21772;DHT22;11047;47.904;8.110;2023-02-28T16:22:17;-0.40;99.90
21772;DHT22;11047;47.904;8.110;2023-02-28T16:24:43;-0.50;99.90
21772;DHT22;11047;47.904;8.110;2023-02-28T16:27:17;-0.60;99.90